sensor_id;sensor_type;location;lat;lon;timestamp;P1;durP1;ratioP1;P2;durP2;ratioP2
70715;SDS011;59053;50.832;12.882;2023-03-23T00:00:27;1.83;;;1.00;;
70715;SDS011;59053;50.832;12.882;2023-03-23T00:02:53;1.70;;;1.10;;
70715;SDS011;59053;50.832;12.882;2023-03-23T00:05:18;2.20;;;1.02;;
70715;SDS011;59053;50.832;12.882;2023-03-23T00:07:49;1.97;;;1.00;;
70715;SDS011;59053;50.832;12.882;2023-03-23T00:10:17;1.60;;;1.00;;
70715;SDS011;59053;50.832;12.882;2023-03-23T00:12:42;1.53;;;0.90;;
70715;SDS011;59053;50.832;12.882;2023-03-23T00:15:10;1.55;;;1.00;;
70715;SDS011;59053;50.832;12.882;2023-03-23T00:17:38;3.33;;;0.90;;
70715;SDS011;59053;50.832;12.882;2023-03-23T00:20:04;1.00;;;0.77;;
70715;SDS011;59053;50.832;12.882;2023-03-23T00:22:33;1.83;;;1.00;;
70715;SDS011;59053;50.832;12.882;2023-03-23T00:25:03;1.20;;;1.00;;
70715;SDS011;59053;50.832;12.882;2023-03-23T00:27:29;1.92;;;1.10;;
70715;SDS011;59053;50.832;12.882;2023-03-23T00:29:54;1.50;;;1.07;;
70715;SDS011;59053;50.832;12.882;2023-03-23T00:36:11;1.73;;;0.95;;
70715;SDS011;59053;50.832;12.882;2023-03-23T00:38:37;1.42;;;0.93;;
70715;SDS011;59053;50.832;12.882;2023-03-23T00:41:04;1.65;;;1.00;;
70715;SDS011;59053;50.832;12.882;2023-03-23T00:43:30;1.15;;;0.90;;
70715;SDS011;59053;50.832;12.882;2023-03-23T00:45:56;1.47;;;1.00;;
70715;SDS011;59053;50.832;12.882;2023-03-23T00:48:26;2.80;;;0.90;;
70715;SDS011;59053;50.832;12.882;2023-03-23T00:50:53;1.50;;;0.95;;
70715;SDS011;59053;50.832;12.882;2023-03-23T00:53:20;1.80;;;1.10;;
70715;SDS011;59053;50.832;12.882;2023-03-23T00:55:46;1.27;;;0.90;;
70715;SDS011;59053;50.832;12.882;2023-03-23T00:58:12;1.90;;;1.00;;
70715;SDS011;59053;50.832;12.882;2023-03-23T01:00:39;2.05;;;1.10;;
70715;SDS011;59053;50.832;12.882;2023-03-23T01:03:05;3.60;;;0.80;;
70715;SDS011;59053;50.832;12.882;2023-03-23T01:05:49;1.10;;;0.88;;
70715;SDS011;59053;50.832;12.882;2023-03-23T01:08:18;2.30;;;0.90;;
70715;SDS011;59053;50.832;12.882;2023-03-23T01:10:44;1.88;;;0.90;;
70715;SDS011;59053;50.832;12.882;2023-03-23T01:13:10;1.25;;;0.90;;
70715;SDS011;59053;50.832;12.882;2023-03-23T01:15:35;1.77;;;0.80;;
70715;SDS011;59053;50.832;12.882;2023-03-23T01:18:01;1.40;;;0.90;;
70715;SDS011;59053;50.832;12.882;2023-03-23T01:20:27;1.20;;;0.80;;
70715;SDS011;59053;50.832;12.882;2023-03-23T01:22:54;2.50;;;1.00;;
70715;SDS011;59053;50.832;12.882;2023-03-23T01:25:25;2.33;;;0.80;;
70715;SDS011;59053;50.832;12.882;2023-03-23T01:27:52;2.03;;;0.90;;
70715;SDS011;59053;50.832;12.882;2023-03-23T01:30:17;1.87;;;1.03;;
70715;SDS011;59053;50.832;12.882;2023-03-23T01:32:43;2.30;;;0.90;;
70715;SDS011;59053;50.832;12.882;2023-03-23T01:35:08;1.50;;;1.00;;
70715;SDS011;59053;50.832;12.882;2023-03-23T01:37:35;1.58;;;1.00;;
70715;SDS011;59053;50.832;12.882;2023-03-23T01:40:01;1.10;;;0.90;;
70715;SDS011;59053;50.832;12.882;2023-03-23T01:42:31;2.40;;;0.90;;
70715;SDS011;59053;50.832;12.882;2023-03-23T01:45:21;1.15;;;0.80;;
70715;SDS011;59053;50.832;12.882;2023-03-23T01:51:54;1.10;;;0.80;;
70715;SDS011;59053;50.832;12.882;2023-03-23T01:54:22;1.27;;;0.90;;
70715;SDS011;59053;50.832;12.882;2023-03-23T01:56:50;1.83;;;1.00;;
70715;SDS011;59053;50.832;12.882;2023-03-23T01:59:17;2.72;;;0.90;;
70715;SDS011;59053;50.832;12.882;2023-03-23T02:01:48;1.40;;;1.00;;
70715;SDS011;59053;50.832;12.882;2023-03-23T02:04:13;1.47;;;0.90;;
70715;SDS011;59053;50.832;12.882;2023-03-23T02:06:41;2.10;;;1.00;;
70715;SDS011;59053;50.832;12.882;2023-03-23T02:09:19;1.90;;;1.10;;
70715;SDS011;59053;50.832;12.882;2023-03-23T02:11:46;2.37;;;1.10;;
70715;SDS011;59053;50.832;12.882;2023-03-23T02:14:13;2.03;;;1.00;;
70715;SDS011;59053;50.832;12.882;2023-03-23T02:19:19;2.55;;;1.00;;
70715;SDS011;59053;50.832;12.882;2023-03-23T02:22:13;2.95;;;0.90;;
70715;SDS011;59053;50.832;12.882;2023-03-23T02:24:58;1.90;;;1.00;;
70715;SDS011;59053;50.832;12.882;2023-03-23T02:33:29;1.42;;;0.90;;
70715;SDS011;59053;50.832;12.882;2023-03-23T02:35:57;2.70;;;1.00;;
70715;SDS011;59053;50.832;12.882;2023-03-23T02:38:30;2.97;;;1.10;;
70715;SDS011;59053;50.832;12.882;2023-03-23T02:40:59;2.72;;;1.20;;
70715;SDS011;59053;50.832;12.882;2023-03-23T02:43:27;2.78;;;1.05;;
70715;SDS011;59053;50.832;12.882;2023-03-23T02:45:55;1.60;;;1.00;;
70715;SDS011;59053;50.832;12.882;2023-03-23T02:48:22;1.67;;;1.08;;
70715;SDS011;59053;50.832;12.882;2023-03-23T02:50:51;2.20;;;1.20;;
70715;SDS011;59053;50.832;12.882;2023-03-23T02:53:18;2.08;;;1.10;;
70715;SDS011;59053;50.832;12.882;2023-03-23T02:55:47;1.63;;;1.00;;
70715;SDS011;59053;50.832;12.882;2023-03-23T02:58:16;1.48;;;0.95;;
70715;SDS011;59053;50.832;12.882;2023-03-23T03:00:43;1.85;;;1.17;;
70715;SDS011;59053;50.832;12.882;2023-03-23T03:03:11;1.80;;;1.10;;
70715;SDS011;59053;50.832;12.882;2023-03-23T03:05:40;3.15;;;1.30;;
70715;SDS011;59053;50.832;12.882;2023-03-23T03:13:23;1.90;;;1.00;;
70715;SDS011;59053;50.832;12.882;2023-03-23T03:21:36;2.75;;;1.20;;
70715;SDS011;59053;50.832;12.882;2023-03-23T03:24:03;2.60;;;1.20;;
70715;SDS011;59053;50.832;12.882;2023-03-23T03:26:34;1.47;;;1.07;;
70715;SDS011;59053;50.832;12.882;2023-03-23T03:29:34;1.58;;;1.00;;
70715;SDS011;59053;50.832;12.882;2023-03-23T03:32:02;2.67;;;1.15;;
70715;SDS011;59053;50.832;12.882;2023-03-23T03:34:30;2.30;;;1.20;;
70715;SDS011;59053;50.832;12.882;2023-03-23T03:36:57;2.03;;;1.10;;
70715;SDS011;59053;50.832;12.882;2023-03-23T03:39:24;2.13;;;1.20;;
70715;SDS011;59053;50.832;12.882;2023-03-23T03:41:50;2.67;;;1.20;;
70715;SDS011;59053;50.832;12.882;2023-03-23T03:44:16;2.78;;;1.20;;
70715;SDS011;59053;50.832;12.882;2023-03-23T03:46:41;2.57;;;1.10;;
70715;SDS011;59053;50.832;12.882;2023-03-23T03:49:08;1.83;;;1.20;;
70715;SDS011;59053;50.832;12.882;2023-03-23T03:51:37;4.05;;;1.20;;
70715;SDS011;59053;50.832;12.882;2023-03-23T03:54:03;3.25;;;1.23;;
70715;SDS011;59053;50.832;12.882;2023-03-23T03:56:29;4.10;;;1.27;;
70715;SDS011;59053;50.832;12.882;2023-03-23T03:59:08;2.17;;;1.20;;
70715;SDS011;59053;50.832;12.882;2023-03-23T04:01:50;1.73;;;1.20;;
70715;SDS011;59053;50.832;12.882;2023-03-23T04:04:19;2.63;;;1.30;;
70715;SDS011;59053;50.832;12.882;2023-03-23T04:06:47;2.95;;;1.20;;
70715;SDS011;59053;50.832;12.882;2023-03-23T04:09:14;1.70;;;1.20;;
70715;SDS011;59053;50.832;12.882;2023-03-23T04:11:39;2.87;;;1.23;;
70715;SDS011;59053;50.832;12.882;2023-03-23T04:14:25;3.28;;;1.20;;
70715;SDS011;59053;50.832;12.882;2023-03-23T04:16:53;2.25;;;1.20;;
70715;SDS011;59053;50.832;12.882;2023-03-23T04:19:22;2.25;;;1.40;;
70715;SDS011;59053;50.832;12.882;2023-03-23T04:21:47;2.78;;;1.50;;
70715;SDS011;59053;50.832;12.882;2023-03-23T04:24:14;3.13;;;1.40;;
70715;SDS011;59053;50.832;12.882;2023-03-23T04:26:40;4.18;;;1.40;;
70715;SDS011;59053;50.832;12.882;2023-03-23T04:29:15;2.22;;;1.33;;
70715;SDS011;59053;50.832;12.882;2023-03-23T04:31:58;3.40;;;1.27;;
70715;SDS011;59053;50.832;12.882;2023-03-23T04:34:33;3.13;;;1.50;;
70715;SDS011;59053;50.832;12.882;2023-03-23T04:37:00;5.07;;;1.80;;
70715;SDS011;59053;50.832;12.882;2023-03-23T04:39:27;4.85;;;1.40;;
70715;SDS011;59053;50.832;12.882;2023-03-23T04:41:54;2.85;;;1.50;;
70715;SDS011;59053;50.832;12.882;2023-03-23T04:44:25;3.13;;;1.40;;
70715;SDS011;59053;50.832;12.882;2023-03-23T04:47:04;1.55;;;1.25;;
70715;SDS011;59053;50.832;12.882;2023-03-23T04:49:34;3.30;;;1.47;;
70715;SDS011;59053;50.832;12.882;2023-03-23T04:52:11;2.92;;;1.40;;
70715;SDS011;59053;50.832;12.882;2023-03-23T04:54:48;2.72;;;1.40;;
70715;SDS011;59053;50.832;12.882;2023-03-23T04:57:14;3.03;;;1.60;;
70715;SDS011;59053;50.832;12.882;2023-03-23T04:59:45;2.63;;;1.30;;
70715;SDS011;59053;50.832;12.882;2023-03-23T05:02:32;2.23;;;1.30;;
70715;SDS011;59053;50.832;12.882;2023-03-23T05:04:58;5.32;;;1.40;;
70715;SDS011;59053;50.832;12.882;2023-03-23T05:07:27;2.05;;;1.20;;
70715;SDS011;59053;50.832;12.882;2023-03-23T05:09:54;2.85;;;1.30;;
70715;SDS011;59053;50.832;12.882;2023-03-23T05:12:28;2.23;;;1.20;;
70715;SDS011;59053;50.832;12.882;2023-03-23T05:14:58;1.63;;;1.10;;
70715;SDS011;59053;50.832;12.882;2023-03-23T05:17:26;2.47;;;1.40;;
70715;SDS011;59053;50.832;12.882;2023-03-23T05:19:55;3.37;;;1.30;;
70715;SDS011;59053;50.832;12.882;2023-03-23T05:22:40;2.38;;;1.20;;
70715;SDS011;59053;50.832;12.882;2023-03-23T05:25:07;2.35;;;1.20;;
70715;SDS011;59053;50.832;12.882;2023-03-23T05:27:37;3.50;;;1.30;;
70715;SDS011;59053;50.832;12.882;2023-03-23T05:30:15;2.88;;;1.20;;
70715;SDS011;59053;50.832;12.882;2023-03-23T05:32:43;1.90;;;1.20;;
70715;SDS011;59053;50.832;12.882;2023-03-23T05:35:55;2.92;;;1.20;;
70715;SDS011;59053;50.832;12.882;2023-03-23T05:38:29;2.20;;;1.10;;
70715;SDS011;59053;50.832;12.882;2023-03-23T05:40:57;1.88;;;1.35;;
70715;SDS011;59053;50.832;12.882;2023-03-23T05:43:27;3.30;;;1.33;;
70715;SDS011;59053;50.832;12.882;2023-03-23T05:46:18;2.00;;;1.30;;
70715;SDS011;59053;50.832;12.882;2023-03-23T05:48:46;1.55;;;1.20;;
70715;SDS011;59053;50.832;12.882;2023-03-23T05:51:17;1.52;;;1.05;;
70715;SDS011;59053;50.832;12.882;2023-03-23T05:53:44;1.95;;;1.23;;
70715;SDS011;59053;50.832;12.882;2023-03-23T05:56:11;2.97;;;1.37;;
70715;SDS011;59053;50.832;12.882;2023-03-23T05:59:04;3.42;;;1.40;;
70715;SDS011;59053;50.832;12.882;2023-03-23T06:01:32;3.03;;;1.58;;
70715;SDS011;59053;50.832;12.882;2023-03-23T06:03:58;2.83;;;1.30;;
70715;SDS011;59053;50.832;12.882;2023-03-23T06:06:28;2.92;;;1.20;;
70715;SDS011;59053;50.832;12.882;2023-03-23T06:09:08;2.10;;;1.10;;
70715;SDS011;59053;50.832;12.882;2023-03-23T06:12:02;1.92;;;1.20;;
70715;SDS011;59053;50.832;12.882;2023-03-23T06:14:42;3.17;;;1.38;;
70715;SDS011;59053;50.832;12.882;2023-03-23T06:17:08;2.07;;;1.27;;
70715;SDS011;59053;50.832;12.882;2023-03-23T06:19:33;2.28;;;1.10;;
70715;SDS011;59053;50.832;12.882;2023-03-23T06:24:55;2.27;;;1.10;;
70715;SDS011;59053;50.832;12.882;2023-03-23T06:27:33;2.83;;;1.20;;
70715;SDS011;59053;50.832;12.882;2023-03-23T06:29:59;2.33;;;1.17;;
70715;SDS011;59053;50.832;12.882;2023-03-23T06:32:25;2.17;;;1.20;;
70715;SDS011;59053;50.832;12.882;2023-03-23T06:34:51;1.97;;;1.30;;
70715;SDS011;59053;50.832;12.882;2023-03-23T06:37:29;6.13;;;1.45;;
70715;SDS011;59053;50.832;12.882;2023-03-23T06:40:22;5.22;;;1.20;;
70715;SDS011;59053;50.832;12.882;2023-03-23T06:43:01;2.15;;;1.20;;
70715;SDS011;59053;50.832;12.882;2023-03-23T06:45:46;2.60;;;1.20;;
70715;SDS011;59053;50.832;12.882;2023-03-23T06:48:32;1.73;;;1.07;;
70715;SDS011;59053;50.832;12.882;2023-03-23T06:50:59;3.25;;;1.40;;
70715;SDS011;59053;50.832;12.882;2023-03-23T06:53:25;2.55;;;1.35;;
70715;SDS011;59053;50.832;12.882;2023-03-23T06:55:53;4.88;;;1.30;;
70715;SDS011;59053;50.832;12.882;2023-03-23T06:58:19;5.00;;;1.50;;
70715;SDS011;59053;50.832;12.882;2023-03-23T07:00:46;3.17;;;1.20;;
70715;SDS011;59053;50.832;12.882;2023-03-23T07:03:14;1.83;;;1.20;;
70715;SDS011;59053;50.832;12.882;2023-03-23T07:05:39;2.97;;;1.50;;
70715;SDS011;59053;50.832;12.882;2023-03-23T07:08:09;3.35;;;1.17;;
70715;SDS011;59053;50.832;12.882;2023-03-23T07:10:40;4.82;;;1.35;;
70715;SDS011;59053;50.832;12.882;2023-03-23T07:13:06;2.20;;;1.33;;
70715;SDS011;59053;50.832;12.882;2023-03-23T07:15:42;3.70;;;1.33;;
70715;SDS011;59053;50.832;12.882;2023-03-23T07:18:07;2.17;;;1.20;;
70715;SDS011;59053;50.832;12.882;2023-03-23T07:20:39;3.58;;;1.30;;
70715;SDS011;59053;50.832;12.882;2023-03-23T07:23:04;3.50;;;1.30;;
70715;SDS011;59053;50.832;12.882;2023-03-23T07:25:51;2.40;;;1.38;;
70715;SDS011;59053;50.832;12.882;2023-03-23T07:28:22;5.35;;;1.23;;
70715;SDS011;59053;50.832;12.882;2023-03-23T07:30:48;2.33;;;1.30;;
70715;SDS011;59053;50.832;12.882;2023-03-23T07:33:14;2.50;;;1.25;;
70715;SDS011;59053;50.832;12.882;2023-03-23T07:35:44;3.67;;;1.33;;
70715;SDS011;59053;50.832;12.882;2023-03-23T07:38:12;1.98;;;1.20;;
70715;SDS011;59053;50.832;12.882;2023-03-23T07:40:39;2.47;;;1.30;;
70715;SDS011;59053;50.832;12.882;2023-03-23T07:43:14;2.43;;;1.33;;
70715;SDS011;59053;50.832;12.882;2023-03-23T07:45:58;1.77;;;1.20;;
70715;SDS011;59053;50.832;12.882;2023-03-23T07:48:30;3.55;;;1.40;;
70715;SDS011;59053;50.832;12.882;2023-03-23T07:50:56;2.15;;;1.30;;
70715;SDS011;59053;50.832;12.882;2023-03-23T07:53:21;2.17;;;1.50;;
70715;SDS011;59053;50.832;12.882;2023-03-23T07:55:56;2.55;;;1.40;;
70715;SDS011;59053;50.832;12.882;2023-03-23T07:58:46;2.37;;;1.23;;
70715;SDS011;59053;50.832;12.882;2023-03-23T08:01:12;2.70;;;1.50;;
70715;SDS011;59053;50.832;12.882;2023-03-23T08:03:39;3.40;;;1.47;;
70715;SDS011;59053;50.832;12.882;2023-03-23T08:06:32;2.45;;;1.30;;
70715;SDS011;59053;50.832;12.882;2023-03-23T08:09:33;2.85;;;1.52;;
70715;SDS011;59053;50.832;12.882;2023-03-23T08:12:24;3.65;;;1.40;;
70715;SDS011;59053;50.832;12.882;2023-03-23T08:15:04;3.13;;;1.52;;
70715;SDS011;59053;50.832;12.882;2023-03-23T08:17:49;3.10;;;1.50;;
70715;SDS011;59053;50.832;12.882;2023-03-23T08:20:36;3.28;;;1.50;;
70715;SDS011;59053;50.832;12.882;2023-03-23T08:23:17;3.70;;;1.70;;
70715;SDS011;59053;50.832;12.882;2023-03-23T08:25:54;2.83;;;1.60;;
70715;SDS011;59053;50.832;12.882;2023-03-23T08:28:30;4.80;;;1.48;;
70715;SDS011;59053;50.832;12.882;2023-03-23T08:30:55;3.20;;;1.60;;
70715;SDS011;59053;50.832;12.882;2023-03-23T08:33:31;3.53;;;1.70;;
70715;SDS011;59053;50.832;12.882;2023-03-23T08:36:28;5.87;;;1.67;;
70715;SDS011;59053;50.832;12.882;2023-03-23T08:39:17;2.38;;;1.55;;
70715;SDS011;59053;50.832;12.882;2023-03-23T08:41:59;4.03;;;1.90;;
70715;SDS011;59053;50.832;12.882;2023-03-23T08:44:47;3.60;;;1.70;;
70715;SDS011;59053;50.832;12.882;2023-03-23T08:47:34;3.40;;;1.77;;
70715;SDS011;59053;50.832;12.882;2023-03-23T08:50:32;3.28;;;1.67;;
70715;SDS011;59053;50.832;12.882;2023-03-23T08:53:08;4.65;;;1.90;;
70715;SDS011;59053;50.832;12.882;2023-03-23T08:55:33;3.93;;;1.67;;
70715;SDS011;59053;50.832;12.882;2023-03-23T08:58:34;4.75;;;1.80;;
70715;SDS011;59053;50.832;12.882;2023-03-23T09:01:21;2.27;;;1.50;;
70715;SDS011;59053;50.832;12.882;2023-03-23T09:04:05;5.45;;;1.70;;
70715;SDS011;59053;50.832;12.882;2023-03-23T09:07:00;3.20;;;1.60;;
70715;SDS011;59053;50.832;12.882;2023-03-23T09:09:25;2.65;;;1.52;;
70715;SDS011;59053;50.832;12.882;2023-03-23T09:11:52;3.07;;;1.60;;
70715;SDS011;59053;50.832;12.882;2023-03-23T09:14:18;2.45;;;1.48;;
70715;SDS011;59053;50.832;12.882;2023-03-23T09:16:43;3.20;;;1.70;;
70715;SDS011;59053;50.832;12.882;2023-03-23T09:19:10;2.72;;;1.60;;
70715;SDS011;59053;50.832;12.882;2023-03-23T09:21:37;5.95;;;2.00;;
70715;SDS011;59053;50.832;12.882;2023-03-23T09:24:03;4.53;;;1.80;;
70715;SDS011;59053;50.832;12.882;2023-03-23T09:26:35;2.28;;;1.55;;
70715;SDS011;59053;50.832;12.882;2023-03-23T09:29:00;5.57;;;1.80;;
70715;SDS011;59053;50.832;12.882;2023-03-23T09:31:26;2.97;;;1.50;;
70715;SDS011;59053;50.832;12.882;2023-03-23T09:33:53;3.38;;;1.50;;
70715;SDS011;59053;50.832;12.882;2023-03-23T09:36:20;3.65;;;1.45;;
70715;SDS011;59053;50.832;12.882;2023-03-23T09:38:47;3.07;;;1.60;;
70715;SDS011;59053;50.832;12.882;2023-03-23T09:44:13;3.10;;;1.50;;
70715;SDS011;59053;50.832;12.882;2023-03-23T09:49:39;2.95;;;1.70;;
70715;SDS011;59053;50.832;12.882;2023-03-23T09:52:11;2.63;;;1.30;;
70715;SDS011;59053;50.832;12.882;2023-03-23T09:54:39;4.53;;;1.60;;
70715;SDS011;59053;50.832;12.882;2023-03-23T10:00:03;3.00;;;1.55;;
70715;SDS011;59053;50.832;12.882;2023-03-23T10:02:39;5.00;;;1.80;;
70715;SDS011;59053;50.832;12.882;2023-03-23T10:05:18;3.03;;;1.50;;
70715;SDS011;59053;50.832;12.882;2023-03-23T10:07:50;3.72;;;1.50;;
70715;SDS011;59053;50.832;12.882;2023-03-23T10:10:15;3.93;;;1.60;;
70715;SDS011;59053;50.832;12.882;2023-03-23T10:12:45;2.90;;;1.52;;
70715;SDS011;59053;50.832;12.882;2023-03-23T10:15:16;3.05;;;1.35;;
70715;SDS011;59053;50.832;12.882;2023-03-23T10:18:02;2.58;;;1.50;;
70715;SDS011;59053;50.832;12.882;2023-03-23T10:25:52;2.33;;;1.40;;
70715;SDS011;59053;50.832;12.882;2023-03-23T10:28:32;3.13;;;1.42;;
70715;SDS011;59053;50.832;12.882;2023-03-23T10:31:02;3.28;;;1.55;;
70715;SDS011;59053;50.832;12.882;2023-03-23T10:33:30;3.10;;;1.77;;
70715;SDS011;59053;50.832;12.882;2023-03-23T10:36:05;4.40;;;1.57;;
70715;SDS011;59053;50.832;12.882;2023-03-23T10:38:44;2.53;;;1.42;;
70715;SDS011;59053;50.832;12.882;2023-03-23T10:41:13;2.97;;;1.40;;
70715;SDS011;59053;50.832;12.882;2023-03-23T10:43:41;5.22;;;1.58;;
70715;SDS011;59053;50.832;12.882;2023-03-23T10:46:20;3.20;;;1.43;;
70715;SDS011;59053;50.832;12.882;2023-03-23T10:48:52;1.80;;;1.30;;
70715;SDS011;59053;50.832;12.882;2023-03-23T10:51:20;3.42;;;1.70;;
70715;SDS011;59053;50.832;12.882;2023-03-23T10:53:58;2.10;;;1.50;;
70715;SDS011;59053;50.832;12.882;2023-03-23T10:56:27;3.72;;;1.90;;
70715;SDS011;59053;50.832;12.882;2023-03-23T10:58:54;4.13;;;2.20;;
70715;SDS011;59053;50.832;12.882;2023-03-23T11:01:27;2.97;;;1.50;;
70715;SDS011;59053;50.832;12.882;2023-03-23T11:03:55;4.95;;;1.70;;
70715;SDS011;59053;50.832;12.882;2023-03-23T11:06:22;1.93;;;1.50;;
70715;SDS011;59053;50.832;12.882;2023-03-23T11:08:54;3.00;;;1.80;;
70715;SDS011;59053;50.832;12.882;2023-03-23T11:11:27;2.42;;;1.50;;
70715;SDS011;59053;50.832;12.882;2023-03-23T11:14:29;2.58;;;1.60;;
70715;SDS011;59053;50.832;12.882;2023-03-23T11:16:58;2.50;;;1.50;;
70715;SDS011;59053;50.832;12.882;2023-03-23T11:19:34;3.90;;;1.85;;
70715;SDS011;59053;50.832;12.882;2023-03-23T11:24:30;3.38;;;1.50;;
70715;SDS011;59053;50.832;12.882;2023-03-23T11:26:57;2.40;;;1.73;;
70715;SDS011;59053;50.832;12.882;2023-03-23T11:29:24;4.73;;;1.70;;
70715;SDS011;59053;50.832;12.882;2023-03-23T11:34:30;5.28;;;1.85;;
70715;SDS011;59053;50.832;12.882;2023-03-23T11:37:00;4.05;;;1.80;;
70715;SDS011;59053;50.832;12.882;2023-03-23T11:39:54;3.30;;;1.80;;
70715;SDS011;59053;50.832;12.882;2023-03-23T11:42:26;4.50;;;2.13;;
70715;SDS011;59053;50.832;12.882;2023-03-23T11:48:15;15.70;;;4.70;;
70715;SDS011;59053;50.832;12.882;2023-03-23T11:50:50;3.60;;;1.95;;
70715;SDS011;59053;50.832;12.882;2023-03-23T11:53:22;2.90;;;1.90;;
70715;SDS011;59053;50.832;12.882;2023-03-23T11:58:43;3.90;;;2.10;;
70715;SDS011;59053;50.832;12.882;2023-03-23T12:01:17;3.80;;;1.70;;
70715;SDS011;59053;50.832;12.882;2023-03-23T12:03:52;4.03;;;2.00;;
70715;SDS011;59053;50.832;12.882;2023-03-23T12:06:28;7.90;;;1.90;;
70715;SDS011;59053;50.832;12.882;2023-03-23T12:09:02;2.70;;;1.50;;
70715;SDS011;59053;50.832;12.882;2023-03-23T12:11:42;5.85;;;1.80;;
70715;SDS011;59053;50.832;12.882;2023-03-23T12:14:21;3.67;;;1.80;;
70715;SDS011;59053;50.832;12.882;2023-03-23T12:17:12;5.32;;;1.90;;
70715;SDS011;59053;50.832;12.882;2023-03-23T12:26:17;4.05;;;1.90;;
70715;SDS011;59053;50.832;12.882;2023-03-23T12:31:39;4.03;;;1.70;;
70715;SDS011;59053;50.832;12.882;2023-03-23T12:42:43;3.33;;;1.75;;
70715;SDS011;59053;50.832;12.882;2023-03-23T12:48:12;2.07;;;1.47;;
70715;SDS011;59053;50.832;12.882;2023-03-23T12:50:46;3.13;;;1.88;;
70715;SDS011;59053;50.832;12.882;2023-03-23T12:53:26;2.90;;;2.00;;
70715;SDS011;59053;50.832;12.882;2023-03-23T12:58:34;2.92;;;1.70;;
70715;SDS011;59053;50.832;12.882;2023-03-23T13:01:12;3.27;;;2.47;;
70715;SDS011;59053;50.832;12.882;2023-03-23T13:03:43;3.22;;;1.60;;
70715;SDS011;59053;50.832;12.882;2023-03-23T13:06:18;2.20;;;1.40;;
70715;SDS011;59053;50.832;12.882;2023-03-23T13:08:58;3.05;;;1.58;;
70715;SDS011;59053;50.832;12.882;2023-03-23T13:11:37;3.30;;;1.83;;
70715;SDS011;59053;50.832;12.882;2023-03-23T13:22:58;2.95;;;1.50;;
70715;SDS011;59053;50.832;12.882;2023-03-23T13:28:21;3.03;;;1.60;;
70715;SDS011;59053;50.832;12.882;2023-03-23T13:31:02;3.70;;;1.67;;
70715;SDS011;59053;50.832;12.882;2023-03-23T13:33:51;2.92;;;1.65;;
70715;SDS011;59053;50.832;12.882;2023-03-23T13:36:26;2.30;;;1.50;;
70715;SDS011;59053;50.832;12.882;2023-03-23T13:38:53;2.33;;;1.83;;
70715;SDS011;59053;50.832;12.882;2023-03-23T13:41:19;2.07;;;1.30;;
70715;SDS011;59053;50.832;12.882;2023-03-23T13:43:46;2.40;;;1.70;;
70715;SDS011;59053;50.832;12.882;2023-03-23T13:46:27;2.30;;;1.60;;
70715;SDS011;59053;50.832;12.882;2023-03-23T13:49:13;2.70;;;1.70;;
70715;SDS011;59053;50.832;12.882;2023-03-23T13:54:14;3.33;;;1.60;;
70715;SDS011;59053;50.832;12.882;2023-03-23T13:59:55;2.53;;;1.58;;
70715;SDS011;59053;50.832;12.882;2023-03-23T14:02:34;2.60;;;1.53;;
70715;SDS011;59053;50.832;12.882;2023-03-23T14:07:54;2.97;;;1.80;;
70715;SDS011;59053;50.832;12.882;2023-03-23T14:10:20;2.95;;;1.83;;
70715;SDS011;59053;50.832;12.882;2023-03-23T14:12:50;2.92;;;1.58;;
70715;SDS011;59053;50.832;12.882;2023-03-23T14:15:18;2.73;;;2.00;;
70715;SDS011;59053;50.832;12.882;2023-03-23T14:17:44;3.78;;;2.28;;
70715;SDS011;59053;50.832;12.882;2023-03-23T14:20:17;4.10;;;1.83;;
70715;SDS011;59053;50.832;12.882;2023-03-23T14:22:57;2.77;;;1.73;;
70715;SDS011;59053;50.832;12.882;2023-03-23T14:25:25;2.67;;;1.60;;
70715;SDS011;59053;50.832;12.882;2023-03-23T14:27:52;2.20;;;1.40;;
70715;SDS011;59053;50.832;12.882;2023-03-23T14:30:22;2.17;;;1.38;;
70715;SDS011;59053;50.832;12.882;2023-03-23T14:32:53;2.40;;;1.40;;
70715;SDS011;59053;50.832;12.882;2023-03-23T14:35:25;2.20;;;1.25;;
70715;SDS011;59053;50.832;12.882;2023-03-23T14:37:53;2.70;;;1.43;;
70715;SDS011;59053;50.832;12.882;2023-03-23T14:40:19;2.15;;;1.48;;
70715;SDS011;59053;50.832;12.882;2023-03-23T14:42:44;2.90;;;1.50;;
70715;SDS011;59053;50.832;12.882;2023-03-23T14:45:12;2.17;;;1.17;;
70715;SDS011;59053;50.832;12.882;2023-03-23T14:47:42;2.80;;;1.52;;
70715;SDS011;59053;50.832;12.882;2023-03-23T14:50:26;2.10;;;1.50;;
70715;SDS011;59053;50.832;12.882;2023-03-23T14:52:55;1.80;;;1.13;;
70715;SDS011;59053;50.832;12.882;2023-03-23T14:55:22;2.03;;;1.45;;
70715;SDS011;59053;50.832;12.882;2023-03-23T14:57:48;2.77;;;1.90;;
70715;SDS011;59053;50.832;12.882;2023-03-23T15:00:18;2.92;;;1.50;;
70715;SDS011;59053;50.832;12.882;2023-03-23T15:02:47;2.38;;;1.95;;
70715;SDS011;59053;50.832;12.882;2023-03-23T15:05:17;2.42;;;1.30;;
70715;SDS011;59053;50.832;12.882;2023-03-23T15:07:46;1.73;;;1.10;;
70715;SDS011;59053;50.832;12.882;2023-03-23T15:10:16;1.33;;;1.10;;
70715;SDS011;59053;50.832;12.882;2023-03-23T15:12:44;1.73;;;1.20;;
70715;SDS011;59053;50.832;12.882;2023-03-23T15:15:31;1.83;;;1.17;;
70715;SDS011;59053;50.832;12.882;2023-03-23T15:17:58;1.33;;;1.15;;
70715;SDS011;59053;50.832;12.882;2023-03-23T15:23:05;1.57;;;1.20;;
70715;SDS011;59053;50.832;12.882;2023-03-23T15:25:32;2.17;;;1.40;;
70715;SDS011;59053;50.832;12.882;2023-03-23T15:28:07;2.50;;;1.40;;
70715;SDS011;59053;50.832;12.882;2023-03-23T15:30:46;1.50;;;1.08;;
70715;SDS011;59053;50.832;12.882;2023-03-23T15:33:13;1.95;;;1.27;;
70715;SDS011;59053;50.832;12.882;2023-03-23T15:35:46;1.87;;;1.20;;
70715;SDS011;59053;50.832;12.882;2023-03-23T15:38:15;2.67;;;1.20;;
70715;SDS011;59053;50.832;12.882;2023-03-23T15:40:44;1.85;;;1.35;;
70715;SDS011;59053;50.832;12.882;2023-03-23T15:43:32;3.15;;;1.75;;
70715;SDS011;59053;50.832;12.882;2023-03-23T15:51:20;2.03;;;1.27;;
70715;SDS011;59053;50.832;12.882;2023-03-23T15:53:59;2.40;;;1.60;;
70715;SDS011;59053;50.832;12.882;2023-03-23T15:56:25;2.75;;;1.33;;
70715;SDS011;59053;50.832;12.882;2023-03-23T15:58:50;2.10;;;1.23;;
70715;SDS011;59053;50.832;12.882;2023-03-23T16:01:17;3.65;;;1.30;;
70715;SDS011;59053;50.832;12.882;2023-03-23T16:03:50;2.60;;;1.00;;
70715;SDS011;59053;50.832;12.882;2023-03-23T16:06:19;2.47;;;1.00;;
70715;SDS011;59053;50.832;12.882;2023-03-23T16:08:45;1.90;;;1.00;;
70715;SDS011;59053;50.832;12.882;2023-03-23T16:11:17;2.05;;;1.08;;
70715;SDS011;59053;50.832;12.882;2023-03-23T16:13:47;2.28;;;1.00;;
70715;SDS011;59053;50.832;12.882;2023-03-23T16:16:17;9.15;;;1.20;;
70715;SDS011;59053;50.832;12.882;2023-03-23T16:18:43;5.93;;;1.00;;
70715;SDS011;59053;50.832;12.882;2023-03-23T16:24:10;2.97;;;1.00;;
70715;SDS011;59053;50.832;12.882;2023-03-23T16:26:36;1.98;;;1.08;;
70715;SDS011;59053;50.832;12.882;2023-03-23T16:32:04;1.55;;;0.90;;
70715;SDS011;59053;50.832;12.882;2023-03-23T16:34:30;1.60;;;1.08;;
70715;SDS011;59053;50.832;12.882;2023-03-23T16:36:57;1.97;;;1.07;;
70715;SDS011;59053;50.832;12.882;2023-03-23T16:39:23;2.20;;;1.10;;
70715;SDS011;59053;50.832;12.882;2023-03-23T16:41:48;2.03;;;1.13;;
70715;SDS011;59053;50.832;12.882;2023-03-23T16:44:14;1.97;;;1.37;;
70715;SDS011;59053;50.832;12.882;2023-03-23T16:46:40;2.88;;;1.30;;
70715;SDS011;59053;50.832;12.882;2023-03-23T16:49:05;2.23;;;1.30;;
70715;SDS011;59053;50.832;12.882;2023-03-23T16:51:30;2.75;;;1.42;;
70715;SDS011;59053;50.832;12.882;2023-03-23T16:53:56;2.30;;;1.50;;